KQWM/QWM METAR and TAF weather

Enter ICAO airport designator
Station Type Date Time Source
KQWM METAR 2021/05/13 18:56 UTC NOAA

KQWM 131856Z VRB03KT 4000 HZ FEW200 36/M00 A2967 RMK AO2A VIS 3000V4000 SLP041 WND DATA ESTMD T03631001


Station Type Date Time Source
KQWM Decoded METAR 2021/05/13 18:56 UTC NOAA

Station name not available
May 13, 2021 - 02:56 PM EDT / 2021.05.13 1856 UTC
Wind: Variable at 3 MPH (3 KT):0
Visibility: 2 mile(s):0
Sky conditions: mostly clear
Weather: haze
Temperature: 97.3 F (36.3 C)
Dew Point: 31.8 F (-0.1 C)
Relative Humidity: 10%
Pressure (altimeter): 29.67 in. Hg (1004 hPa)
ob: KQWM 131856Z VRB03KT 4000 HZ FEW200 36/M00 A2967 RMK AO2A VIS 3000V4000 SLP041 WND DATA ESTMD T03631001
cycle: 19

Station Type Date Time Source
KQWM TAF 2016/03/17 15:00 UTC NOAA

TAF KQWM 171500Z 1715/1821 28009KT 9000 HZ SKC QNH2995INS
TEMPO 1715/1717 27015G20KT
BECMG 1807/1808 29012G20KT 8000 HZ SKC QNH2998INS
BECMG 1814/1815 29009KT 9999 NSW SKC QNH3002INS TX26/1811Z TN13/1803Z

Example: see airport list